createdAt,value
2017-06-20T00:01:05.919Z,14.43
2017-06-20T00:03:33.019Z,14.50
2017-06-20T00:06:00.518Z,13.70
2017-06-20T00:08:28.279Z,15.17
2017-06-20T00:10:55.288Z,17.10
2017-06-20T00:13:22.331Z,17.63
2017-06-20T00:15:49.343Z,17.23
2017-06-20T00:18:16.326Z,15.17
2017-06-20T00:20:43.552Z,17.70
2017-06-20T00:23:11.363Z,16.70
2017-06-20T00:25:38.352Z,15.23
2017-06-20T00:28:05.367Z,17.50
2017-06-20T00:30:32.365Z,19.10
2017-06-20T00:32:59.390Z,15.37
2017-06-20T00:35:26.426Z,19.20
2017-06-20T00:37:53.438Z,17.77
2017-06-20T00:40:20.418Z,20.63
2017-06-20T00:42:47.423Z,17.40
2017-06-20T00:45:14.403Z,25.47
2017-06-20T00:47:41.460Z,22.80
2017-06-20T00:50:08.447Z,21.03
2017-06-20T00:55:08.838Z,21.20
2017-06-20T00:57:35.851Z,23.00
2017-06-20T01:00:02.913Z,21.80
2017-06-20T01:02:29.911Z,21.10
2017-06-20T01:04:57.695Z,23.23
2017-06-20T01:07:24.682Z,17.70
2017-06-20T01:09:51.687Z,17.07
2017-06-20T01:12:18.691Z,24.23
2017-06-20T01:14:45.715Z,19.20
2017-06-20T01:17:12.708Z,21.13
2017-06-20T01:19:40.511Z,25.93
2017-06-20T01:22:07.495Z,20.10
2017-06-20T01:24:34.475Z,20.03
2017-06-20T01:27:01.523Z,18.50
2017-06-20T01:29:28.508Z,17.93
2017-06-20T01:31:55.522Z,25.03
2017-06-20T01:34:22.510Z,22.60
2017-06-20T01:36:49.519Z,23.87
2017-06-20T01:39:16.506Z,25.43
2017-06-20T01:41:44.006Z,24.13
2017-06-20T01:44:11.767Z,22.70
2017-06-20T01:46:39.542Z,25.87
2017-06-20T01:49:06.551Z,24.00
2017-06-20T01:51:33.567Z,24.87
2017-06-20T01:54:00.578Z,21.47
2017-06-20T01:56:27.594Z,29.70
2017-06-20T01:58:54.630Z,28.20
2017-06-20T02:01:21.655Z,21.63
2017-06-20T02:03:48.671Z,25.27
2017-06-20T02:06:15.675Z,23.37
2017-06-20T02:08:42.748Z,27.80
2017-06-20T02:11:10.539Z,28.77
2017-06-20T02:13:37.547Z,23.93
2017-06-20T02:16:05.306Z,23.80
2017-06-20T02:18:32.352Z,25.10
2017-06-20T02:21:00.119Z,23.70
2017-06-20T02:23:27.910Z,20.07
2017-06-20T02:25:54.890Z,21.10
2017-06-20T02:28:21.942Z,24.33
2017-06-20T02:30:48.951Z,21.77
2017-06-20T02:33:15.967Z,19.83
2017-06-20T02:35:43.763Z,30.10
2017-06-20T02:38:10.762Z,28.10
2017-06-20T02:40:37.778Z,22.77
2017-06-20T02:43:04.768Z,23.00
2017-06-20T02:45:32.539Z,27.87
2017-06-20T02:48:00.287Z,25.47
2017-06-20T02:50:27.297Z,25.33
2017-06-20T02:52:54.280Z,27.70
2017-06-20T02:55:21.296Z,23.90
2017-06-20T02:57:48.282Z,28.80
2017-06-20T03:00:15.319Z,25.00
2017-06-20T03:02:42.299Z,29.73
2017-06-20T03:05:09.283Z,20.73
2017-06-20T03:07:36.298Z,24.30
2017-06-20T03:10:03.291Z,23.93
2017-06-20T03:12:30.303Z,28.77
2017-06-20T03:14:57.284Z,31.73
2017-06-20T03:17:24.305Z,33.57
2017-06-20T03:19:51.293Z,33.93
2017-06-20T03:22:19.097Z,35.53
2017-06-20T03:24:46.078Z,34.87
2017-06-20T03:27:13.092Z,32.40
2017-06-20T03:29:40.078Z,33.20
2017-06-20T03:32:07.088Z,39.10
2017-06-20T03:34:34.079Z,33.20
2017-06-20T03:37:01.872Z,32.73
2017-06-20T03:39:28.887Z,33.67
2017-06-20T03:41:55.868Z,33.90
2017-06-20T03:44:22.875Z,34.30
2017-06-20T03:46:49.861Z,36.60
2017-06-20T03:49:16.847Z,27.00
2017-06-20T03:51:43.873Z,36.63
2017-06-20T03:54:10.859Z,45.33
2017-06-20T03:56:37.874Z,35.40
2017-06-20T03:59:04.867Z,33.13
2017-06-20T04:01:32.622Z,36.00
2017-06-20T04:03:59.632Z,32.00
2017-06-20T04:06:26.623Z,33.93
2017-06-20T04:08:54.407Z,32.13
2017-06-20T04:11:21.402Z,33.73
2017-06-20T04:13:48.638Z,31.60
2017-06-20T04:16:15.651Z,35.80
2017-06-20T04:18:42.631Z,33.00
2017-06-20T04:21:09.643Z,35.37
2017-06-20T04:23:36.659Z,31.27
2017-06-20T04:26:03.643Z,27.03
2017-06-20T04:28:30.637Z,30.30
2017-06-20T04:30:57.663Z,31.20
2017-06-20T04:33:24.650Z,36.17
2017-06-20T04:35:51.660Z,37.43
2017-06-20T04:38:18.644Z,31.97
2017-06-20T04:40:46.438Z,29.60
2017-06-20T04:43:13.420Z,40.33
2017-06-20T04:45:40.459Z,28.57
2017-06-20T04:48:07.439Z,30.90
2017-06-20T04:50:34.432Z,31.20
2017-06-20T04:53:01.443Z,32.90
2017-06-20T04:55:29.199Z,32.07
2017-06-20T04:57:56.227Z,32.20
2017-06-20T05:00:23.216Z,34.73
2017-06-20T05:02:50.228Z,29.93
2017-06-20T05:05:17.211Z,44.07
2017-06-20T05:07:44.243Z,37.70
2017-06-20T05:10:11.238Z,39.50
2017-06-20T05:12:38.228Z,37.67
2017-06-20T05:15:05.291Z,39.40
2017-06-20T05:17:32.278Z,30.97
2017-06-20T05:19:59.327Z,32.70
2017-06-20T05:22:26.311Z,30.13
2017-06-20T05:24:54.099Z,34.60
2017-06-20T05:27:21.091Z,30.30
2017-06-20T05:29:48.156Z,31.33
2017-06-20T05:32:15.151Z,32.33
2017-06-20T05:34:42.143Z,28.93
2017-06-20T05:37:09.154Z,24.17
2017-06-20T05:39:36.138Z,28.80
2017-06-20T05:42:03.160Z,28.60
2017-06-20T05:44:30.167Z,29.53
2017-06-20T05:46:57.187Z,28.33
2017-06-20T05:49:24.939Z,24.47
2017-06-20T05:51:51.967Z,26.33
2017-06-20T05:54:18.951Z,24.00
2017-06-20T05:56:46.747Z,22.63
2017-06-20T05:59:13.763Z,30.43
2017-06-20T06:01:41.523Z,21.67
2017-06-20T06:04:09.303Z,26.90
2017-06-20T06:06:36.304Z,23.00
2017-06-20T06:09:03.359Z,20.70
2017-06-20T06:11:30.350Z,21.43
2017-06-20T06:13:57.367Z,18.30
2017-06-20T06:16:25.127Z,18.33
2017-06-20T06:18:52.142Z,16.73
2017-06-20T06:21:19.133Z,17.20
2017-06-20T06:23:46.921Z,20.63
2017-06-20T06:26:13.912Z,17.90
2017-06-20T06:28:40.933Z,16.67
2017-06-20T06:31:07.927Z,13.73
2017-06-20T06:33:35.676Z,16.83
2017-06-20T06:36:02.751Z,9.30
2017-06-20T06:38:29.756Z,11.80
2017-06-20T06:40:56.787Z,12.67
2017-06-20T06:43:23.774Z,12.40
2017-06-20T06:45:51.564Z,8.50
2017-06-20T06:48:18.548Z,8.60
2017-06-20T06:50:45.555Z,11.00
2017-06-20T06:53:12.588Z,9.33
2017-06-20T06:55:40.336Z,12.03
2017-06-20T06:58:07.347Z,14.93
2017-06-20T07:00:34.335Z,9.40
2017-06-20T07:03:01.427Z,10.40
2017-06-20T07:05:28.434Z,9.13
2017-06-20T07:07:56.216Z,10.73
2017-06-20T07:10:23.199Z,7.57
2017-06-20T07:12:50.215Z,15.23
2017-06-20T07:15:17.211Z,8.77
2017-06-20T07:17:44.240Z,10.77
2017-06-20T07:20:12.245Z,6.93
2017-06-20T07:22:40.007Z,5.63
2017-06-20T07:25:07.012Z,10.10
2017-06-20T07:27:33.996Z,7.20
2017-06-20T07:30:01.102Z,5.37
2017-06-20T07:32:28.086Z,6.20
2017-06-20T07:34:55.097Z,6.60
2017-06-20T07:37:22.097Z,4.63
2017-06-20T07:39:49.871Z,4.07
2017-06-20T07:42:16.876Z,4.60
2017-06-20T07:44:43.890Z,5.53
2017-06-20T07:47:10.886Z,3.27
2017-06-20T07:49:37.899Z,3.00
2017-06-20T07:52:04.879Z,4.87
2017-06-20T07:54:31.948Z,6.83
2017-06-20T07:56:58.935Z,3.17
2017-06-20T07:59:25.935Z,9.10
2017-06-20T08:01:52.963Z,5.33
2017-06-20T08:04:19.940Z,9.13
2017-06-20T08:06:46.956Z,2.97
2017-06-20T08:09:14.703Z,2.50
2017-06-20T08:11:41.739Z,3.50
2017-06-20T08:14:08.731Z,8.97
2017-06-20T08:16:35.713Z,6.07
2017-06-20T08:19:02.727Z,7.47
2017-06-20T08:21:29.712Z,5.23
2017-06-20T08:23:56.719Z,3.93
2017-06-20T08:26:23.703Z,4.00
2017-06-20T08:28:50.711Z,5.20
2017-06-20T08:31:17.689Z,6.70
2017-06-20T08:33:44.703Z,6.90
2017-06-20T08:36:11.689Z,2.97
2017-06-20T08:38:38.696Z,6.40
2017-06-20T08:41:06.627Z,2.67
2017-06-20T08:43:33.703Z,2.83
2017-06-20T08:46:01.446Z,4.83
2017-06-20T08:48:29.212Z,11.93
2017-06-20T08:50:58.036Z,3.27
2017-06-20T08:53:25.051Z,4.23
2017-06-20T08:55:52.827Z,3.60
2017-06-20T08:58:19.845Z,7.50
2017-06-20T09:00:46.824Z,1.70
2017-06-20T09:03:13.831Z,8.77
2017-06-20T09:05:40.811Z,11.47
2017-06-20T09:08:07.831Z,3.63
2017-06-20T09:10:34.811Z,4.10
2017-06-20T09:13:01.792Z,3.97
2017-06-20T09:15:28.803Z,3.87
2017-06-20T09:17:55.783Z,5.10
2017-06-20T09:20:22.795Z,10.00
2017-06-20T09:22:49.873Z,2.53
2017-06-20T09:25:16.906Z,8.43
2017-06-20T09:27:43.890Z,9.20
2017-06-20T09:30:10.880Z,4.60
2017-06-20T09:32:37.917Z,8.23
2017-06-20T09:35:05.687Z,1.13
2017-06-20T09:37:32.703Z,7.10
2017-06-20T09:39:59.683Z,5.40
2017-06-20T09:42:26.696Z,3.30
2017-06-20T09:44:53.691Z,9.10
2017-06-20T09:47:20.705Z,5.80
2017-06-20T09:49:47.686Z,2.73
2017-06-20T09:52:14.691Z,5.57
2017-06-20T09:54:42.453Z,4.63
2017-06-20T09:57:10.241Z,4.60
2017-06-20T09:59:37.240Z,4.47
2017-06-20T10:02:04.291Z,2.53
2017-06-20T10:04:31.281Z,4.73
2017-06-20T10:06:58.267Z,5.90
2017-06-20T10:09:25.426Z,1.40
2017-06-20T10:11:52.424Z,3.53
2017-06-20T10:14:19.403Z,2.70
2017-06-20T10:16:46.419Z,4.73
2017-06-20T10:19:13.438Z,3.80
2017-06-20T10:21:40.436Z,3.87
2017-06-20T10:24:07.457Z,8.33
2017-06-20T10:26:34.448Z,2.80
2017-06-20T10:29:01.475Z,3.80
2017-06-20T10:31:28.459Z,6.07
2017-06-20T10:33:55.492Z,5.10
2017-06-20T10:36:22.475Z,2.17
2017-06-20T10:38:50.224Z,1.43
2017-06-20T10:41:18.023Z,2.83
2017-06-20T10:43:45.004Z,8.23
2017-06-20T10:46:12.147Z,5.60
2017-06-20T10:48:39.132Z,6.43
2017-06-20T10:51:06.116Z,2.77
2017-06-20T10:53:33.132Z,4.53
2017-06-20T10:56:00.147Z,3.17
2017-06-20T10:58:27.138Z,5.70
2017-06-20T11:00:54.147Z,3.33
2017-06-20T11:03:21.136Z,4.20
2017-06-20T11:05:48.160Z,3.40
2017-06-20T11:08:15.920Z,3.57
2017-06-20T11:10:43.714Z,6.20
2017-06-20T11:13:10.712Z,4.33
2017-06-20T11:15:38.550Z,7.20
2017-06-20T11:18:05.545Z,5.50
2017-06-20T11:20:33.332Z,9.40
2017-06-20T11:23:00.340Z,5.37
2017-06-20T11:25:28.128Z,5.70
2017-06-20T11:27:55.106Z,3.90
2017-06-20T11:30:22.124Z,2.30
2017-06-20T11:32:49.111Z,5.73
2017-06-20T11:35:16.146Z,3.23
2017-06-20T11:37:43.124Z,5.13
2017-06-20T11:40:10.143Z,5.20
2017-06-20T11:42:37.136Z,2.50
2017-06-20T11:45:04.136Z,3.03
2017-06-20T11:47:31.159Z,9.03
2017-06-20T11:49:58.141Z,8.03
2017-06-20T11:52:25.168Z,2.63
2017-06-20T11:54:52.162Z,7.70
2017-06-20T11:57:19.954Z,4.53
2017-06-20T11:59:46.948Z,5.43
2017-06-20T12:02:13.995Z,3.33
2017-06-20T12:04:41.042Z,7.53
2017-06-20T12:07:08.031Z,7.23
2017-06-20T12:09:35.040Z,9.57
2017-06-20T12:12:02.076Z,6.93
2017-06-20T12:14:29.537Z,2.00
2017-06-20T12:16:56.535Z,8.33
2017-06-20T12:19:23.530Z,3.07
2017-06-20T12:21:50.547Z,4.77
2017-06-20T12:24:17.524Z,5.00
2017-06-20T12:26:44.567Z,3.20
2017-06-20T12:29:11.568Z,1.80
2017-06-20T12:31:38.583Z,5.43
2017-06-20T12:34:06.347Z,4.30
2017-06-20T12:36:33.348Z,2.90
2017-06-20T12:39:00.363Z,2.13
2017-06-20T12:41:27.388Z,2.23
2017-06-20T12:43:55.757Z,3.00
2017-06-20T12:46:22.736Z,1.53
2017-06-20T12:48:49.723Z,3.27
2017-06-20T12:51:16.773Z,1.90
2017-06-20T12:53:43.791Z,2.43
2017-06-20T12:56:10.812Z,4.10
2017-06-20T12:58:37.828Z,2.80
2017-06-20T13:01:04.816Z,1.07
2017-06-20T13:03:31.892Z,4.93
2017-06-20T13:05:58.914Z,3.77
2017-06-20T13:08:25.948Z,4.33
2017-06-20T13:10:52.945Z,2.20
2017-06-20T13:13:19.982Z,1.53
2017-06-20T13:15:46.972Z,4.33
2017-06-20T13:18:14.024Z,5.37
2017-06-20T13:20:41.027Z,2.40
2017-06-20T13:23:08.081Z,3.73
2017-06-20T13:25:35.068Z,2.77
2017-06-20T13:28:02.061Z,5.13
2017-06-20T13:30:29.091Z,2.37
2017-06-20T13:32:56.088Z,1.03
2017-06-20T13:35:23.878Z,1.17
2017-06-20T13:37:50.873Z,4.80
2017-06-20T13:40:17.897Z,2.90
2017-06-20T13:42:44.898Z,4.23
2017-06-20T13:45:12.681Z,1.70
2017-06-20T13:47:39.666Z,4.33
2017-06-20T13:50:06.677Z,3.23
2017-06-20T13:52:33.667Z,3.77
2017-06-20T13:55:00.692Z,3.87
2017-06-20T13:57:27.683Z,6.63
2017-06-20T13:59:55.497Z,5.00
2017-06-20T14:02:22.480Z,6.90
2017-06-20T14:04:49.494Z,0.90
2017-06-20T14:07:16.479Z,10.43
2017-06-20T14:09:43.485Z,5.70
2017-06-20T14:12:10.469Z,1.43
2017-06-20T14:14:37.478Z,4.10
2017-06-20T14:17:04.479Z,3.33
2017-06-20T14:19:32.328Z,3.03
2017-06-20T14:22:00.108Z,3.23
2017-06-20T14:24:27.132Z,1.73
2017-06-20T14:26:54.252Z,6.97
2017-06-20T14:29:21.274Z,6.57
2017-06-20T14:31:48.291Z,1.87
2017-06-20T14:34:15.299Z,1.70
2017-06-20T14:36:42.343Z,1.80
2017-06-20T14:39:09.333Z,2.63
2017-06-20T14:41:36.361Z,2.40
2017-06-20T14:44:03.346Z,12.17
2017-06-20T14:46:30.388Z,3.47
2017-06-20T14:48:57.385Z,5.60
2017-06-20T14:51:24.395Z,5.40
2017-06-20T14:53:51.395Z,4.70
2017-06-20T14:56:18.607Z,4.93
2017-06-20T14:58:45.592Z,2.53
2017-06-20T15:01:14.595Z,7.03
2017-06-20T15:03:41.649Z,4.23
2017-06-20T15:06:08.679Z,5.80
2017-06-20T15:08:35.705Z,4.60
2017-06-20T15:11:02.727Z,7.10
2017-06-20T15:13:29.728Z,4.63
2017-06-20T15:15:56.746Z,11.17
2017-06-20T15:18:23.737Z,2.60
2017-06-20T15:20:50.761Z,3.67
2017-06-20T15:23:18.528Z,3.97
2017-06-20T15:25:45.576Z,3.23
2017-06-20T15:28:12.728Z,7.03
2017-06-20T15:30:40.478Z,8.33
2017-06-20T15:33:07.491Z,2.20
2017-06-20T15:35:34.503Z,4.70
2017-06-20T15:38:01.530Z,6.80
2017-06-20T15:40:28.575Z,3.33
2017-06-20T15:42:55.570Z,7.10
2017-06-20T15:45:22.570Z,4.80
2017-06-20T15:47:49.604Z,6.77
2017-06-20T15:50:16.635Z,4.97
2017-06-20T15:52:43.657Z,3.17
2017-06-20T15:55:10.656Z,2.70
2017-06-20T15:57:38.447Z,7.13
2017-06-20T16:00:05.440Z,5.87
2017-06-20T16:02:32.483Z,6.60
2017-06-20T16:04:59.483Z,4.93
2017-06-20T16:07:26.503Z,3.17
2017-06-20T16:09:53.512Z,6.73
2017-06-20T16:12:20.537Z,10.70
2017-06-20T16:14:47.523Z,6.40
2017-06-20T16:17:14.512Z,8.70
2017-06-20T16:19:41.536Z,8.23
2017-06-20T16:22:09.283Z,2.40
2017-06-20T16:24:36.288Z,2.23
2017-06-20T16:27:03.283Z,4.93
2017-06-20T16:29:30.311Z,6.57
2017-06-20T16:31:57.299Z,4.50
2017-06-20T16:34:24.307Z,4.00
2017-06-20T16:36:51.291Z,3.67
2017-06-20T16:39:18.302Z,4.50
2017-06-20T16:41:45.296Z,7.43
2017-06-20T16:44:12.303Z,7.43
2017-06-20T16:46:40.056Z,7.33
2017-06-20T16:49:07.083Z,9.47
2017-06-20T16:51:34.083Z,7.87
2017-06-20T16:54:01.105Z,8.07
2017-06-20T16:56:28.096Z,3.87
2017-06-20T16:58:55.131Z,4.63
2017-06-20T17:01:22.128Z,3.97
2017-06-20T17:03:49.119Z,2.20
2017-06-20T17:06:16.139Z,7.07
2017-06-20T17:08:43.182Z,5.47
2017-06-20T17:11:10.209Z,4.53
2017-06-20T17:13:37.224Z,4.27
2017-06-20T17:16:04.219Z,7.90
2017-06-20T17:18:31.240Z,6.40
2017-06-20T17:20:58.221Z,3.87
2017-06-20T17:23:25.248Z,9.27
2017-06-20T17:25:52.312Z,4.47
2017-06-20T17:28:19.863Z,8.13
2017-06-20T17:30:47.733Z,2.70
2017-06-20T17:33:14.748Z,6.20
2017-06-20T17:35:43.366Z,7.47
2017-06-20T17:38:10.460Z,2.43
2017-06-20T17:40:37.504Z,6.20
2017-06-20T17:43:04.797Z,3.80
2017-06-20T17:45:32.097Z,3.20
2017-06-20T17:47:59.164Z,6.80
2017-06-20T17:50:26.160Z,3.70
2017-06-20T17:52:53.827Z,4.80
2017-06-20T17:55:20.974Z,2.57
2017-06-20T17:57:48.045Z,3.97
2017-06-20T18:00:15.067Z,4.97
2017-06-20T18:02:42.076Z,3.90
2017-06-20T18:05:09.173Z,6.77
2017-06-20T18:07:36.169Z,7.90
2017-06-20T18:10:03.257Z,6.03
2017-06-20T18:12:31.027Z,16.57
2017-06-20T18:14:58.072Z,6.00
2017-06-20T18:17:25.064Z,5.70
2017-06-20T18:19:52.089Z,5.27
2017-06-20T18:22:19.086Z,5.83
2017-06-20T18:24:46.105Z,5.30
2017-06-20T18:27:13.108Z,4.20
2017-06-20T18:29:40.127Z,4.00
2017-06-20T18:32:07.126Z,9.50
2017-06-20T18:34:34.156Z,6.20
2017-06-20T18:37:01.148Z,7.17
2017-06-20T18:39:28.142Z,15.67
2017-06-20T18:41:55.171Z,7.13
2017-06-20T18:44:22.237Z,5.30
2017-06-20T18:46:49.246Z,9.37
2017-06-20T18:49:17.024Z,10.77
2017-06-20T18:51:44.819Z,9.60
2017-06-20T18:54:11.819Z,2.23
2017-06-20T18:56:38.856Z,7.03
2017-06-20T18:59:05.856Z,7.70
2017-06-20T19:01:32.887Z,5.17
2017-06-20T19:04:00.743Z,5.67
2017-06-20T19:06:27.765Z,6.80
2017-06-20T19:08:54.816Z,10.53
2017-06-20T19:11:21.808Z,4.53
2017-06-20T19:13:48.812Z,8.90
2017-06-20T19:16:15.871Z,5.00
2017-06-20T19:18:43.691Z,8.37
2017-06-20T19:21:10.716Z,4.10
2017-06-20T19:23:37.740Z,4.53
2017-06-20T19:26:04.788Z,3.30
2017-06-20T19:28:31.782Z,7.43
2017-06-20T19:30:58.830Z,4.23
2017-06-20T19:33:25.831Z,5.13
2017-06-20T19:35:52.909Z,5.20
2017-06-20T19:38:20.042Z,3.67
2017-06-20T19:40:47.096Z,8.23
2017-06-20T19:43:14.108Z,2.63
2017-06-20T19:45:41.904Z,10.90
2017-06-20T19:48:08.900Z,7.93
2017-06-20T19:50:35.878Z,2.63
2017-06-20T19:53:03.134Z,5.27
2017-06-20T19:55:30.137Z,6.47
2017-06-20T19:57:57.427Z,3.70
2017-06-20T20:00:24.649Z,2.10
2017-06-20T20:02:51.691Z,14.53
2017-06-20T20:05:18.947Z,9.40
2017-06-20T20:07:46.224Z,6.47
2017-06-20T20:10:14.288Z,6.13
2017-06-20T20:12:42.237Z,6.00
2017-06-20T20:15:09.447Z,6.77
2017-06-20T20:17:36.671Z,7.87
2017-06-20T20:20:03.815Z,7.63
2017-06-20T20:22:31.625Z,10.23
2017-06-20T20:24:59.154Z,5.60
2017-06-20T20:27:26.751Z,6.90
2017-06-20T20:29:53.996Z,11.57
2017-06-20T20:32:21.048Z,7.90
2017-06-20T20:34:48.029Z,4.30
2017-06-20T20:37:15.425Z,7.80
2017-06-20T20:39:42.777Z,12.47
2017-06-20T20:42:09.805Z,5.73
2017-06-20T20:44:36.892Z,10.77
2017-06-20T20:47:04.009Z,4.90
2017-06-20T20:49:31.229Z,4.23
2017-06-20T20:51:58.262Z,11.17
2017-06-20T20:54:25.463Z,3.10
2017-06-20T20:56:52.645Z,5.63
2017-06-20T20:59:19.658Z,4.30
2017-06-20T21:01:46.854Z,7.57
2017-06-20T21:04:13.979Z,5.73
2017-06-20T21:06:41.351Z,4.83
2017-06-20T21:09:08.345Z,11.73
2017-06-20T21:11:35.360Z,9.23
2017-06-20T21:14:02.354Z,10.50
2017-06-20T21:16:29.371Z,9.83
2017-06-20T21:18:56.367Z,5.50
2017-06-20T21:21:23.395Z,5.50
2017-06-20T21:23:50.383Z,3.60
2017-06-20T21:26:17.379Z,5.73
2017-06-20T21:28:44.399Z,3.93
2017-06-20T21:31:11.395Z,5.10
2017-06-20T21:33:38.419Z,5.90
2017-06-20T21:36:05.489Z,10.17
2017-06-20T21:38:32.551Z,4.77
2017-06-20T21:40:59.651Z,3.43
2017-06-20T21:43:27.008Z,8.00
2017-06-20T21:45:54.025Z,8.87
2017-06-20T21:48:21.016Z,9.07
2017-06-20T21:50:48.089Z,8.20
2017-06-20T21:53:15.088Z,5.23
2017-06-20T21:55:42.415Z,7.27
2017-06-20T21:58:09.449Z,2.77
2017-06-20T22:00:36.452Z,17.27
2017-06-20T22:03:03.471Z,17.90
2017-06-20T22:05:31.227Z,9.70
2017-06-20T22:07:58.245Z,5.97
2017-06-20T22:10:25.237Z,11.37
2017-06-20T22:12:52.338Z,6.70
2017-06-20T22:15:19.435Z,5.80
2017-06-20T22:17:46.417Z,3.80
2017-06-20T22:20:13.456Z,7.27
2017-06-20T22:22:40.460Z,10.50
2017-06-20T22:25:08.246Z,14.23
2017-06-20T22:27:35.267Z,8.83
2017-06-20T22:30:03.092Z,4.00
2017-06-20T22:32:30.111Z,7.60
2017-06-20T22:34:57.097Z,6.90
2017-06-20T22:37:24.145Z,5.27
2017-06-20T22:39:51.132Z,4.70
2017-06-20T22:42:18.149Z,11.03
2017-06-20T22:44:45.144Z,9.90
2017-06-20T22:47:12.160Z,9.03
2017-06-20T22:49:39.920Z,7.40
2017-06-20T22:52:07.729Z,6.53
2017-06-20T22:54:34.747Z,5.23
2017-06-20T22:57:01.743Z,6.97
2017-06-20T22:59:28.791Z,13.07
2017-06-20T23:01:55.780Z,3.30
2017-06-20T23:04:23.536Z,7.90
2017-06-20T23:06:51.315Z,4.70
2017-06-20T23:09:18.296Z,7.87
2017-06-20T23:11:45.315Z,4.40
2017-06-20T23:14:12.303Z,4.70
2017-06-20T23:16:39.315Z,7.00
2017-06-20T23:19:06.307Z,6.10
2017-06-20T23:21:33.326Z,8.53
2017-06-20T23:24:00.316Z,5.90
2017-06-20T23:26:28.123Z,6.47
2017-06-20T23:28:55.103Z,6.83
2017-06-20T23:31:22.084Z,3.97
2017-06-20T23:33:49.103Z,6.33
2017-06-20T23:36:16.088Z,5.37
2017-06-20T23:38:43.099Z,7.60
2017-06-20T23:41:10.087Z,7.83
2017-06-20T23:43:37.103Z,6.47
2017-06-20T23:46:04.871Z,8.37
2017-06-20T23:48:32.622Z,9.80
2017-06-20T23:50:59.635Z,7.83
2017-06-20T23:53:26.639Z,6.10
2017-06-20T23:55:53.650Z,7.60
2017-06-20T23:58:20.639Z,8.47
